sensor_id;sensor_type;location;lat;lon;timestamp;temperature;humidity
23873;DHT22;42884;50.718;4.630;2023-01-23T00:00:20;3.50;99.90
23873;DHT22;42884;50.718;4.630;2023-01-23T00:02:46;3.40;99.90
23873;DHT22;42884;50.718;4.630;2023-01-23T00:05:11;3.40;99.90
23873;DHT22;42884;50.718;4.630;2023-01-23T00:07:37;3.40;99.90
23873;DHT22;42884;50.718;4.630;2023-01-23T00:10:03;3.40;99.90
23873;DHT22;42884;50.718;4.630;2023-01-23T00:12:28;3.40;99.90
23873;DHT22;42884;50.718;4.630;2023-01-23T00:14:54;3.40;99.90
23873;DHT22;42884;50.718;4.630;2023-01-23T00:17:20;3.30;99.90
23873;DHT22;42884;50.718;4.630;2023-01-23T00:19:45;3.40;99.90
23873;DHT22;42884;50.718;4.630;2023-01-23T00:22:11;3.40;99.90
23873;DHT22;42884;50.718;4.630;2023-01-23T00:24:39;3.40;99.90
23873;DHT22;42884;50.718;4.630;2023-01-23T00:27:05;3.40;99.90
23873;DHT22;42884;50.718;4.630;2023-01-23T00:29:30;3.30;99.90
23873;DHT22;42884;50.718;4.630;2023-01-23T00:31:56;3.30;99.90
23873;DHT22;42884;50.718;4.630;2023-01-23T00:34:21;3.30;99.90
23873;DHT22;42884;50.718;4.630;2023-01-23T00:36:47;3.40;99.90
23873;DHT22;42884;50.718;4.630;2023-01-23T00:39:19;3.30;99.90
23873;DHT22;42884;50.718;4.630;2023-01-23T00:41:46;3.30;99.90
23873;DHT22;42884;50.718;4.630;2023-01-23T00:44:11;3.20;99.90
23873;DHT22;42884;50.718;4.630;2023-01-23T00:46:37;3.30;99.90
23873;DHT22;42884;50.718;4.630;2023-01-23T00:49:03;3.30;99.90
23873;DHT22;42884;50.718;4.630;2023-01-23T00:51:28;3.30;99.90
23873;DHT22;42884;50.718;4.630;2023-01-23T00:53:54;3.30;99.90
23873;DHT22;42884;50.718;4.630;2023-01-23T00:56:20;3.40;99.90
23873;DHT22;42884;50.718;4.630;2023-01-23T00:58:45;3.20;99.90
23873;DHT22;42884;50.718;4.630;2023-01-23T01:01:11;3.20;99.90
23873;DHT22;42884;50.718;4.630;2023-01-23T01:03:38;3.30;99.90
23873;DHT22;42884;50.718;4.630;2023-01-23T01:06:03;3.20;99.90
23873;DHT22;42884;50.718;4.630;2023-01-23T01:08:29;3.20;99.90
23873;DHT22;42884;50.718;4.630;2023-01-23T01:10:55;3.20;99.90
23873;DHT22;42884;50.718;4.630;2023-01-23T01:13:20;3.30;99.90
23873;DHT22;42884;50.718;4.630;2023-01-23T01:15:48;3.30;99.90
23873;DHT22;42884;50.718;4.630;2023-01-23T01:18:14;3.30;99.90
23873;DHT22;42884;50.718;4.630;2023-01-23T01:20:40;3.30;99.90
23873;DHT22;42884;50.718;4.630;2023-01-23T01:23:06;3.30;99.90
23873;DHT22;42884;50.718;4.630;2023-01-23T01:25:32;3.40;99.90
23873;DHT22;42884;50.718;4.630;2023-01-23T01:27:58;3.30;99.90
23873;DHT22;42884;50.718;4.630;2023-01-23T01:30:24;3.30;99.90
23873;DHT22;42884;50.718;4.630;2023-01-23T01:32:52;3.50;99.90
23873;DHT22;42884;50.718;4.630;2023-01-23T01:35:19;3.50;99.90
23873;DHT22;42884;50.718;4.630;2023-01-23T01:37:44;3.40;99.90
23873;DHT22;42884;50.718;4.630;2023-01-23T01:40:14;3.30;99.90
23873;DHT22;42884;50.718;4.630;2023-01-23T01:42:47;3.30;99.90
23873;DHT22;42884;50.718;4.630;2023-01-23T01:47:58;3.40;99.90
23873;DHT22;42884;50.718;4.630;2023-01-23T01:50:23;3.30;99.90
23873;DHT22;42884;50.718;4.630;2023-01-23T01:52:49;3.30;99.90
23873;DHT22;42884;50.718;4.630;2023-01-23T01:55:14;3.40;99.90
23873;DHT22;42884;50.718;4.630;2023-01-23T01:57:41;3.40;99.90
23873;DHT22;42884;50.718;4.630;2023-01-23T02:00:12;3.40;99.90
23873;DHT22;42884;50.718;4.630;2023-01-23T02:08:01;3.40;99.90
23873;DHT22;42884;50.718;4.630;2023-01-23T02:10:29;3.40;99.90
23873;DHT22;42884;50.718;4.630;2023-01-23T02:13:15;3.50;99.90
23873;DHT22;42884;50.718;4.630;2023-01-23T02:15:42;3.50;99.90
23873;DHT22;42884;50.718;4.630;2023-01-23T02:18:07;3.50;99.90
23873;DHT22;42884;50.718;4.630;2023-01-23T02:20:33;3.50;99.90
23873;DHT22;42884;50.718;4.630;2023-01-23T02:23:00;3.50;99.90
23873;DHT22;42884;50.718;4.630;2023-01-23T02:28:07;3.50;99.90
23873;DHT22;42884;50.718;4.630;2023-01-23T02:30:35;3.50;99.90
23873;DHT22;42884;50.718;4.630;2023-01-23T02:33:10;3.50;99.90
23873;DHT22;42884;50.718;4.630;2023-01-23T02:35:37;3.50;99.90
23873;DHT22;42884;50.718;4.630;2023-01-23T02:38:04;3.40;99.90
23873;DHT22;42884;50.718;4.630;2023-01-23T02:40:32;3.40;99.90
23873;DHT22;42884;50.718;4.630;2023-01-23T02:42:58;3.50;99.90
23873;DHT22;42884;50.718;4.630;2023-01-23T02:45:24;3.50;99.90
23873;DHT22;42884;50.718;4.630;2023-01-23T02:47:50;3.40;99.90
23873;DHT22;42884;50.718;4.630;2023-01-23T02:50:16;3.40;99.90
23873;DHT22;42884;50.718;4.630;2023-01-23T02:52:42;3.40;99.90
23873;DHT22;42884;50.718;4.630;2023-01-23T02:55:07;3.50;99.90
23873;DHT22;42884;50.718;4.630;2023-01-23T02:57:33;3.50;99.90
23873;DHT22;42884;50.718;4.630;2023-01-23T02:59:59;3.60;99.90
23873;DHT22;42884;50.718;4.630;2023-01-23T03:02:57;3.50;99.90
23873;DHT22;42884;50.718;4.630;2023-01-23T03:05:22;3.50;99.90
23873;DHT22;42884;50.718;4.630;2023-01-23T03:07:48;3.60;99.90
23873;DHT22;42884;50.718;4.630;2023-01-23T03:10:14;3.60;99.90
23873;DHT22;42884;50.718;4.630;2023-01-23T03:12:39;3.60;99.90
23873;DHT22;42884;50.718;4.630;2023-01-23T03:15:08;3.40;99.90
23873;DHT22;42884;50.718;4.630;2023-01-23T03:17:34;3.60;99.90
23873;DHT22;42884;50.718;4.630;2023-01-23T03:20:00;3.60;99.90
23873;DHT22;42884;50.718;4.630;2023-01-23T03:22:27;3.60;99.90
23873;DHT22;42884;50.718;4.630;2023-01-23T03:24:53;3.60;99.90
23873;DHT22;42884;50.718;4.630;2023-01-23T03:27:18;3.60;99.90
23873;DHT22;42884;50.718;4.630;2023-01-23T03:29:44;3.50;99.90
23873;DHT22;42884;50.718;4.630;2023-01-23T03:32:28;3.60;99.90
23873;DHT22;42884;50.718;4.630;2023-01-23T03:34:55;3.50;99.90
23873;DHT22;42884;50.718;4.630;2023-01-23T03:37:20;3.60;99.90
23873;DHT22;42884;50.718;4.630;2023-01-23T03:39:46;3.60;99.90
23873;DHT22;42884;50.718;4.630;2023-01-23T03:42:33;3.60;99.90
23873;DHT22;42884;50.718;4.630;2023-01-23T03:44:59;3.60;99.90
23873;DHT22;42884;50.718;4.630;2023-01-23T03:47:25;3.50;99.90
23873;DHT22;42884;50.718;4.630;2023-01-23T03:49:51;3.50;99.90
23873;DHT22;42884;50.718;4.630;2023-01-23T03:52:16;3.40;99.90
23873;DHT22;42884;50.718;4.630;2023-01-23T03:54:42;3.50;99.90
23873;DHT22;42884;50.718;4.630;2023-01-23T03:57:08;3.50;99.90
23873;DHT22;42884;50.718;4.630;2023-01-23T03:59:34;3.60;99.90
23873;DHT22;42884;50.718;4.630;2023-01-23T04:01:59;3.60;99.90
23873;DHT22;42884;50.718;4.630;2023-01-23T04:04:25;3.60;99.90
23873;DHT22;42884;50.718;4.630;2023-01-23T04:06:51;3.60;99.90
23873;DHT22;42884;50.718;4.630;2023-01-23T04:09:16;3.70;99.90
23873;DHT22;42884;50.718;4.630;2023-01-23T04:11:42;3.60;99.90
23873;DHT22;42884;50.718;4.630;2023-01-23T04:14:08;3.70;99.90
23873;DHT22;42884;50.718;4.630;2023-01-23T04:16:33;3.60;99.90
23873;DHT22;42884;50.718;4.630;2023-01-23T04:18:59;3.60;99.90
23873;DHT22;42884;50.718;4.630;2023-01-23T04:21:24;3.60;99.90
23873;DHT22;42884;50.718;4.630;2023-01-23T04:23:50;3.70;99.90
23873;DHT22;42884;50.718;4.630;2023-01-23T04:26:15;3.70;99.90
23873;DHT22;42884;50.718;4.630;2023-01-23T04:28:41;3.60;99.90
23873;DHT22;42884;50.718;4.630;2023-01-23T04:31:07;3.60;99.90
23873;DHT22;42884;50.718;4.630;2023-01-23T04:33:34;3.40;99.90
23873;DHT22;42884;50.718;4.630;2023-01-23T04:36:00;3.50;99.90
23873;DHT22;42884;50.718;4.630;2023-01-23T04:38:27;3.50;99.90
23873;DHT22;42884;50.718;4.630;2023-01-23T04:40:53;3.50;99.90
23873;DHT22;42884;50.718;4.630;2023-01-23T04:43:19;3.60;99.90
23873;DHT22;42884;50.718;4.630;2023-01-23T04:45:45;3.50;99.90
23873;DHT22;42884;50.718;4.630;2023-01-23T04:48:11;3.50;99.90
23873;DHT22;42884;50.718;4.630;2023-01-23T04:50:37;3.60;99.90
23873;DHT22;42884;50.718;4.630;2023-01-23T04:53:02;3.50;99.90
23873;DHT22;42884;50.718;4.630;2023-01-23T04:55:28;3.50;99.90
23873;DHT22;42884;50.718;4.630;2023-01-23T04:57:54;3.50;99.90
23873;DHT22;42884;50.718;4.630;2023-01-23T05:00:19;3.50;99.90
23873;DHT22;42884;50.718;4.630;2023-01-23T05:02:46;3.60;99.90
23873;DHT22;42884;50.718;4.630;2023-01-23T05:05:12;3.50;99.90
23873;DHT22;42884;50.718;4.630;2023-01-23T05:07:38;3.50;99.90
23873;DHT22;42884;50.718;4.630;2023-01-23T05:10:03;3.50;99.90
23873;DHT22;42884;50.718;4.630;2023-01-23T05:12:29;3.60;99.90
23873;DHT22;42884;50.718;4.630;2023-01-23T05:14:55;3.60;99.90
23873;DHT22;42884;50.718;4.630;2023-01-23T05:17:20;3.50;99.90
23873;DHT22;42884;50.718;4.630;2023-01-23T05:19:46;3.50;99.90
23873;DHT22;42884;50.718;4.630;2023-01-23T05:22:12;3.60;99.90
23873;DHT22;42884;50.718;4.630;2023-01-23T05:24:37;3.60;99.90
23873;DHT22;42884;50.718;4.630;2023-01-23T05:27:03;3.70;99.90
23873;DHT22;42884;50.718;4.630;2023-01-23T05:29:28;3.60;99.90
23873;DHT22;42884;50.718;4.630;2023-01-23T05:31:54;3.60;99.90
23873;DHT22;42884;50.718;4.630;2023-01-23T05:34:20;3.50;99.90
23873;DHT22;42884;50.718;4.630;2023-01-23T05:36:45;3.50;99.90
23873;DHT22;42884;50.718;4.630;2023-01-23T05:39:11;3.50;99.90
23873;DHT22;42884;50.718;4.630;2023-01-23T05:41:36;3.60;99.90
23873;DHT22;42884;50.718;4.630;2023-01-23T05:44:02;3.70;99.90
23873;DHT22;42884;50.718;4.630;2023-01-23T05:46:27;3.60;99.90
23873;DHT22;42884;50.718;4.630;2023-01-23T05:48:53;3.60;99.90
23873;DHT22;42884;50.718;4.630;2023-01-23T05:51:19;3.60;99.90
23873;DHT22;42884;50.718;4.630;2023-01-23T05:53:45;3.60;99.90
23873;DHT22;42884;50.718;4.630;2023-01-23T05:56:10;3.70;99.90
23873;DHT22;42884;50.718;4.630;2023-01-23T05:58:36;3.70;99.90
23873;DHT22;42884;50.718;4.630;2023-01-23T06:01:02;3.60;99.90
23873;DHT22;42884;50.718;4.630;2023-01-23T06:03:28;3.60;99.90
23873;DHT22;42884;50.718;4.630;2023-01-23T06:05:54;3.50;99.90
23873;DHT22;42884;50.718;4.630;2023-01-23T06:08:19;3.60;99.90
23873;DHT22;42884;50.718;4.630;2023-01-23T06:10:45;3.60;99.90
23873;DHT22;42884;50.718;4.630;2023-01-23T06:13:10;3.60;99.90
23873;DHT22;42884;50.718;4.630;2023-01-23T06:15:36;3.70;99.90
23873;DHT22;42884;50.718;4.630;2023-01-23T06:18:02;3.70;99.90
23873;DHT22;42884;50.718;4.630;2023-01-23T06:20:27;3.70;99.90
23873;DHT22;42884;50.718;4.630;2023-01-23T06:22:53;3.70;99.90
23873;DHT22;42884;50.718;4.630;2023-01-23T06:25:18;3.70;99.90
23873;DHT22;42884;50.718;4.630;2023-01-23T06:27:46;3.60;99.90
23873;DHT22;42884;50.718;4.630;2023-01-23T06:30:12;3.60;99.90
23873;DHT22;42884;50.718;4.630;2023-01-23T06:32:38;3.70;99.90
23873;DHT22;42884;50.718;4.630;2023-01-23T06:35:03;3.70;99.90
23873;DHT22;42884;50.718;4.630;2023-01-23T06:37:30;3.70;99.90
23873;DHT22;42884;50.718;4.630;2023-01-23T06:39:55;3.70;99.90
23873;DHT22;42884;50.718;4.630;2023-01-23T06:42:21;3.70;99.90
23873;DHT22;42884;50.718;4.630;2023-01-23T06:44:46;3.80;99.90
23873;DHT22;42884;50.718;4.630;2023-01-23T06:47:12;3.80;99.90
23873;DHT22;42884;50.718;4.630;2023-01-23T06:49:37;3.70;99.90
23873;DHT22;42884;50.718;4.630;2023-01-23T06:52:03;3.70;99.90
23873;DHT22;42884;50.718;4.630;2023-01-23T06:54:29;3.60;99.90
23873;DHT22;42884;50.718;4.630;2023-01-23T06:56:54;3.70;99.90
23873;DHT22;42884;50.718;4.630;2023-01-23T06:59:20;3.70;99.90
23873;DHT22;42884;50.718;4.630;2023-01-23T07:01:45;3.70;99.90
23873;DHT22;42884;50.718;4.630;2023-01-23T07:04:11;3.80;99.90
23873;DHT22;42884;50.718;4.630;2023-01-23T07:06:37;3.70;99.90
23873;DHT22;42884;50.718;4.630;2023-01-23T07:09:02;3.70;99.90
23873;DHT22;42884;50.718;4.630;2023-01-23T07:11:28;3.80;99.90
23873;DHT22;42884;50.718;4.630;2023-01-23T07:13:53;3.80;99.90
23873;DHT22;42884;50.718;4.630;2023-01-23T07:16:19;3.80;99.90
23873;DHT22;42884;50.718;4.630;2023-01-23T07:18:44;3.80;99.90
23873;DHT22;42884;50.718;4.630;2023-01-23T07:21:10;3.80;99.90
23873;DHT22;42884;50.718;4.630;2023-01-23T07:23:36;3.60;99.90
23873;DHT22;42884;50.718;4.630;2023-01-23T07:26:02;3.60;99.90
23873;DHT22;42884;50.718;4.630;2023-01-23T07:28:28;3.60;99.90
23873;DHT22;42884;50.718;4.630;2023-01-23T07:30:54;3.70;99.90
23873;DHT22;42884;50.718;4.630;2023-01-23T07:33:21;3.70;99.90
23873;DHT22;42884;50.718;4.630;2023-01-23T07:35:47;3.60;99.90
23873;DHT22;42884;50.718;4.630;2023-01-23T07:38:12;3.70;99.90
23873;DHT22;42884;50.718;4.630;2023-01-23T07:40:38;3.70;99.90
23873;DHT22;42884;50.718;4.630;2023-01-23T07:43:05;3.70;99.90
23873;DHT22;42884;50.718;4.630;2023-01-23T07:45:30;3.80;99.90
23873;DHT22;42884;50.718;4.630;2023-01-23T07:47:56;3.70;99.90
23873;DHT22;42884;50.718;4.630;2023-01-23T07:50:22;3.70;99.90
23873;DHT22;42884;50.718;4.630;2023-01-23T07:52:47;3.70;99.90
23873;DHT22;42884;50.718;4.630;2023-01-23T07:55:13;3.70;99.90
23873;DHT22;42884;50.718;4.630;2023-01-23T07:57:39;3.70;99.90
23873;DHT22;42884;50.718;4.630;2023-01-23T08:00:04;3.60;99.90
23873;DHT22;42884;50.718;4.630;2023-01-23T08:02:30;3.70;99.90
23873;DHT22;42884;50.718;4.630;2023-01-23T08:04:56;3.70;99.90
23873;DHT22;42884;50.718;4.630;2023-01-23T08:07:21;3.60;99.90
23873;DHT22;42884;50.718;4.630;2023-01-23T08:09:48;3.70;99.90
23873;DHT22;42884;50.718;4.630;2023-01-23T08:12:13;3.80;99.90
23873;DHT22;42884;50.718;4.630;2023-01-23T08:14:39;3.60;99.90
23873;DHT22;42884;50.718;4.630;2023-01-23T08:17:05;3.70;99.90
23873;DHT22;42884;50.718;4.630;2023-01-23T08:19:31;3.80;99.90
23873;DHT22;42884;50.718;4.630;2023-01-23T08:21:56;3.90;99.90
23873;DHT22;42884;50.718;4.630;2023-01-23T08:24:22;4.00;99.90
23873;DHT22;42884;50.718;4.630;2023-01-23T08:26:47;3.90;99.90
23873;DHT22;42884;50.718;4.630;2023-01-23T08:29:13;4.00;99.90
23873;DHT22;42884;50.718;4.630;2023-01-23T08:31:39;4.00;99.90
23873;DHT22;42884;50.718;4.630;2023-01-23T08:34:04;3.90;99.90
23873;DHT22;42884;50.718;4.630;2023-01-23T08:36:30;3.90;99.90
23873;DHT22;42884;50.718;4.630;2023-01-23T08:38:56;3.80;99.90
23873;DHT22;42884;50.718;4.630;2023-01-23T08:41:21;3.90;99.90
23873;DHT22;42884;50.718;4.630;2023-01-23T08:43:50;3.90;99.90
23873;DHT22;42884;50.718;4.630;2023-01-23T08:46:16;4.00;99.90
23873;DHT22;42884;50.718;4.630;2023-01-23T08:48:41;4.10;99.90
23873;DHT22;42884;50.718;4.630;2023-01-23T08:51:08;4.10;99.90
23873;DHT22;42884;50.718;4.630;2023-01-23T08:53:34;4.10;99.90
23873;DHT22;42884;50.718;4.630;2023-01-23T08:56:00;4.00;99.90
23873;DHT22;42884;50.718;4.630;2023-01-23T08:58:26;4.10;99.90
23873;DHT22;42884;50.718;4.630;2023-01-23T09:00:52;4.00;99.90
23873;DHT22;42884;50.718;4.630;2023-01-23T09:03:18;4.10;99.90
23873;DHT22;42884;50.718;4.630;2023-01-23T09:05:43;4.20;99.90
23873;DHT22;42884;50.718;4.630;2023-01-23T09:08:09;4.20;99.90
23873;DHT22;42884;50.718;4.630;2023-01-23T09:10:34;4.20;99.90
23873;DHT22;42884;50.718;4.630;2023-01-23T09:13:00;4.30;99.90
23873;DHT22;42884;50.718;4.630;2023-01-23T09:15:26;4.30;99.90
23873;DHT22;42884;50.718;4.630;2023-01-23T09:17:52;4.40;99.90
23873;DHT22;42884;50.718;4.630;2023-01-23T09:20:17;4.30;99.90
23873;DHT22;42884;50.718;4.630;2023-01-23T09:22:43;4.40;99.90
23873;DHT22;42884;50.718;4.630;2023-01-23T09:25:09;4.40;99.90
23873;DHT22;42884;50.718;4.630;2023-01-23T09:27:34;4.50;99.90
23873;DHT22;42884;50.718;4.630;2023-01-23T09:30:00;4.50;99.90
23873;DHT22;42884;50.718;4.630;2023-01-23T09:32:26;4.40;99.90
23873;DHT22;42884;50.718;4.630;2023-01-23T09:34:51;4.40;99.90
23873;DHT22;42884;50.718;4.630;2023-01-23T09:37:19;4.50;99.90
23873;DHT22;42884;50.718;4.630;2023-01-23T09:39:44;4.50;99.90
23873;DHT22;42884;50.718;4.630;2023-01-23T09:42:30;4.50;99.90
23873;DHT22;42884;50.718;4.630;2023-01-23T09:44:59;4.60;99.90
23873;DHT22;42884;50.718;4.630;2023-01-23T09:47:30;4.50;99.90
23873;DHT22;42884;50.718;4.630;2023-01-23T09:50:06;4.60;99.90
23873;DHT22;42884;50.718;4.630;2023-01-23T09:52:37;4.70;99.90
23873;DHT22;42884;50.718;4.630;2023-01-23T09:57:56;4.50;99.90
23873;DHT22;42884;50.718;4.630;2023-01-23T10:00:31;4.50;99.90
23873;DHT22;42884;50.718;4.630;2023-01-23T10:02:57;4.60;99.90
23873;DHT22;42884;50.718;4.630;2023-01-23T10:05:33;4.50;99.90
23873;DHT22;42884;50.718;4.630;2023-01-23T10:08:25;4.60;99.90
23873;DHT22;42884;50.718;4.630;2023-01-23T10:11:02;4.70;99.90
23873;DHT22;42884;50.718;4.630;2023-01-23T10:16:13;4.60;99.90
23873;DHT22;42884;50.718;4.630;2023-01-23T10:18:43;4.70;99.90
23873;DHT22;42884;50.718;4.630;2023-01-23T10:26:22;4.80;99.90
23873;DHT22;42884;50.718;4.630;2023-01-23T10:28:50;4.90;99.90
23873;DHT22;42884;50.718;4.630;2023-01-23T10:31:42;5.00;99.90
23873;DHT22;42884;50.718;4.630;2023-01-23T10:34:16;5.00;99.90
23873;DHT22;42884;50.718;4.630;2023-01-23T10:39:15;5.00;99.90
23873;DHT22;42884;50.718;4.630;2023-01-23T10:41:41;5.00;99.90
23873;DHT22;42884;50.718;4.630;2023-01-23T10:44:25;5.10;99.90
23873;DHT22;42884;50.718;4.630;2023-01-23T10:46:54;5.20;99.90
23873;DHT22;42884;50.718;4.630;2023-01-23T10:51:53;4.90;99.90
23873;DHT22;42884;50.718;4.630;2023-01-23T10:54:20;4.90;99.90
23873;DHT22;42884;50.718;4.630;2023-01-23T10:59:52;5.00;99.90
23873;DHT22;42884;50.718;4.630;2023-01-23T11:02:20;5.20;99.90
23873;DHT22;42884;50.718;4.630;2023-01-23T11:04:47;5.10;99.90
23873;DHT22;42884;50.718;4.630;2023-01-23T11:07:20;5.20;99.90
23873;DHT22;42884;50.718;4.630;2023-01-23T11:09:47;5.10;99.90
23873;DHT22;42884;50.718;4.630;2023-01-23T11:12:14;5.00;99.90
23873;DHT22;42884;50.718;4.630;2023-01-23T11:14:40;5.00;99.90
23873;DHT22;42884;50.718;4.630;2023-01-23T11:17:16;5.00;99.90
23873;DHT22;42884;50.718;4.630;2023-01-23T11:19:42;5.00;99.90
23873;DHT22;42884;50.718;4.630;2023-01-23T11:24:49;4.90;99.90
23873;DHT22;42884;50.718;4.630;2023-01-23T11:27:25;4.90;99.90
23873;DHT22;42884;50.718;4.630;2023-01-23T11:29:54;5.00;99.90
23873;DHT22;42884;50.718;4.630;2023-01-23T11:32:23;5.00;99.90
23873;DHT22;42884;50.718;4.630;2023-01-23T11:34:49;5.10;99.90
23873;DHT22;42884;50.718;4.630;2023-01-23T11:42:17;5.20;99.90
23873;DHT22;42884;50.718;4.630;2023-01-23T11:44:44;5.10;99.90
23873;DHT22;42884;50.718;4.630;2023-01-23T11:47:17;5.20;99.90
23873;DHT22;42884;50.718;4.630;2023-01-23T11:52:26;5.10;99.90
23873;DHT22;42884;50.718;4.630;2023-01-23T11:57:44;5.10;99.90
23873;DHT22;42884;50.718;4.630;2023-01-23T12:08:29;5.10;99.90
23873;DHT22;42884;50.718;4.630;2023-01-23T12:11:02;5.20;99.90
23873;DHT22;42884;50.718;4.630;2023-01-23T12:21:16;4.80;99.90
23873;DHT22;42884;50.718;4.630;2023-01-23T12:26:12;5.10;99.90
23873;DHT22;42884;50.718;4.630;2023-01-23T12:36:20;5.00;99.90
23873;DHT22;42884;50.718;4.630;2023-01-23T12:44:03;4.90;99.90
23873;DHT22;42884;50.718;4.630;2023-01-23T12:46:31;4.90;99.90
23873;DHT22;42884;50.718;4.630;2023-01-23T12:51:32;5.00;99.90
23873;DHT22;42884;50.718;4.630;2023-01-23T12:53:59;5.00;99.90
23873;DHT22;42884;50.718;4.630;2023-01-23T12:56:28;5.10;99.90
23873;DHT22;42884;50.718;4.630;2023-01-23T12:59:04;5.10;99.90
23873;DHT22;42884;50.718;4.630;2023-01-23T13:06:42;5.20;99.90
23873;DHT22;42884;50.718;4.630;2023-01-23T13:09:17;5.10;99.90
23873;DHT22;42884;50.718;4.630;2023-01-23T13:12:04;5.10;99.90
23873;DHT22;42884;50.718;4.630;2023-01-23T13:16:58;5.10;99.90
23873;DHT22;42884;50.718;4.630;2023-01-23T13:19:29;5.10;99.90
23873;DHT22;42884;50.718;4.630;2023-01-23T13:24:46;5.40;99.90
23873;DHT22;42884;50.718;4.630;2023-01-23T13:27:33;5.50;99.90
23873;DHT22;42884;50.718;4.630;2023-01-23T13:29:58;5.50;99.90
23873;DHT22;42884;50.718;4.630;2023-01-23T13:32:29;5.40;99.90
23873;DHT22;42884;50.718;4.630;2023-01-23T13:34:55;5.50;99.90
23873;DHT22;42884;50.718;4.630;2023-01-23T13:37:31;5.30;99.90
23873;DHT22;42884;50.718;4.630;2023-01-23T13:40:08;5.20;99.90
23873;DHT22;42884;50.718;4.630;2023-01-23T13:42:37;5.00;99.90
23873;DHT22;42884;50.718;4.630;2023-01-23T13:45:13;5.00;99.90
23873;DHT22;42884;50.718;4.630;2023-01-23T13:47:40;5.10;99.90
23873;DHT22;42884;50.718;4.630;2023-01-23T13:50:29;5.00;99.90
23873;DHT22;42884;50.718;4.630;2023-01-23T13:53:00;5.00;99.90
23873;DHT22;42884;50.718;4.630;2023-01-23T13:55:50;5.00;99.90
23873;DHT22;42884;50.718;4.630;2023-01-23T13:58:34;5.00;99.90
23873;DHT22;42884;50.718;4.630;2023-01-23T14:01:04;5.20;99.90
23873;DHT22;42884;50.718;4.630;2023-01-23T14:03:51;5.20;99.90
23873;DHT22;42884;50.718;4.630;2023-01-23T14:06:38;5.30;99.90
23873;DHT22;42884;50.718;4.630;2023-01-23T14:09:17;5.40;99.90
23873;DHT22;42884;50.718;4.630;2023-01-23T14:11:44;5.40;99.90
23873;DHT22;42884;50.718;4.630;2023-01-23T14:14:10;5.40;99.90
23873;DHT22;42884;50.718;4.630;2023-01-23T14:16:54;5.30;99.90
23873;DHT22;42884;50.718;4.630;2023-01-23T14:19:24;5.30;99.90
23873;DHT22;42884;50.718;4.630;2023-01-23T14:22:03;5.20;99.90
23873;DHT22;42884;50.718;4.630;2023-01-23T14:24:38;5.00;99.90
23873;DHT22;42884;50.718;4.630;2023-01-23T14:27:09;5.20;99.90
23873;DHT22;42884;50.718;4.630;2023-01-23T14:29:34;5.20;99.90
23873;DHT22;42884;50.718;4.630;2023-01-23T14:32:00;5.40;99.90
23873;DHT22;42884;50.718;4.630;2023-01-23T14:34:26;5.50;99.90
23873;DHT22;42884;50.718;4.630;2023-01-23T14:39:18;5.30;99.90
23873;DHT22;42884;50.718;4.630;2023-01-23T14:41:44;5.20;99.90
23873;DHT22;42884;50.718;4.630;2023-01-23T14:44:14;5.10;99.90
23873;DHT22;42884;50.718;4.630;2023-01-23T14:46:41;5.10;99.90
23873;DHT22;42884;50.718;4.630;2023-01-23T14:49:08;5.00;99.90
23873;DHT22;42884;50.718;4.630;2023-01-23T14:51:34;5.10;99.90
23873;DHT22;42884;50.718;4.630;2023-01-23T14:54:17;5.20;99.90
23873;DHT22;42884;50.718;4.630;2023-01-23T14:56:42;5.30;99.90
23873;DHT22;42884;50.718;4.630;2023-01-23T14:59:26;5.20;99.90
23873;DHT22;42884;50.718;4.630;2023-01-23T15:01:55;5.00;99.90
23873;DHT22;42884;50.718;4.630;2023-01-23T15:04:22;4.80;99.90
23873;DHT22;42884;50.718;4.630;2023-01-23T15:06:51;4.80;99.90
23873;DHT22;42884;50.718;4.630;2023-01-23T15:09:17;4.80;99.90
23873;DHT22;42884;50.718;4.630;2023-01-23T15:11:46;4.90;99.90
23873;DHT22;42884;50.718;4.630;2023-01-23T15:14:21;4.70;99.90
23873;DHT22;42884;50.718;4.630;2023-01-23T15:16:48;4.70;99.90
23873;DHT22;42884;50.718;4.630;2023-01-23T15:19:22;4.50;99.90
23873;DHT22;42884;50.718;4.630;2023-01-23T15:21:48;4.60;99.90
23873;DHT22;42884;50.718;4.630;2023-01-23T15:26:40;4.50;99.90
23873;DHT22;42884;50.718;4.630;2023-01-23T15:31:40;4.60;99.90
23873;DHT22;42884;50.718;4.630;2023-01-23T15:34:16;4.70;99.90
23873;DHT22;42884;50.718;4.630;2023-01-23T15:39:39;4.60;99.90
23873;DHT22;42884;50.718;4.630;2023-01-23T15:42:20;4.60;99.90
23873;DHT22;42884;50.718;4.630;2023-01-23T15:44:48;4.50;99.90
23873;DHT22;42884;50.718;4.630;2023-01-23T15:47:13;4.40;99.90
23873;DHT22;42884;50.718;4.630;2023-01-23T15:49:39;4.40;99.90
23873;DHT22;42884;50.718;4.630;2023-01-23T15:54:39;4.40;99.90
23873;DHT22;42884;50.718;4.630;2023-01-23T15:57:04;4.40;99.90
23873;DHT22;42884;50.718;4.630;2023-01-23T15:59:33;4.40;99.90
23873;DHT22;42884;50.718;4.630;2023-01-23T16:01:59;4.30;99.90
23873;DHT22;42884;50.718;4.630;2023-01-23T16:04:25;4.30;99.90
23873;DHT22;42884;50.718;4.630;2023-01-23T16:06:50;4.30;99.90
23873;DHT22;42884;50.718;4.630;2023-01-23T16:09:20;4.20;99.90
23873;DHT22;42884;50.718;4.630;2023-01-23T16:11:46;4.30;99.90
23873;DHT22;42884;50.718;4.630;2023-01-23T16:14:14;4.40;99.90
23873;DHT22;42884;50.718;4.630;2023-01-23T16:16:40;4.20;99.90
23873;DHT22;42884;50.718;4.630;2023-01-23T16:19:05;4.30;99.90
23873;DHT22;42884;50.718;4.630;2023-01-23T16:21:31;4.30;99.90
23873;DHT22;42884;50.718;4.630;2023-01-23T16:23:57;4.30;99.90
23873;DHT22;42884;50.718;4.630;2023-01-23T16:26:23;4.20;99.90
23873;DHT22;42884;50.718;4.630;2023-01-23T16:28:49;4.10;99.90
23873;DHT22;42884;50.718;4.630;2023-01-23T16:31:15;4.30;99.90
23873;DHT22;42884;50.718;4.630;2023-01-23T16:33:41;4.40;99.90
23873;DHT22;42884;50.718;4.630;2023-01-23T16:36:14;4.30;99.90
23873;DHT22;42884;50.718;4.630;2023-01-23T16:38:39;4.30;99.90
23873;DHT22;42884;50.718;4.630;2023-01-23T16:41:07;4.30;99.90
23873;DHT22;42884;50.718;4.630;2023-01-23T16:43:33;4.20;99.90
23873;DHT22;42884;50.718;4.630;2023-01-23T16:46:00;4.30;99.90
23873;DHT22;42884;50.718;4.630;2023-01-23T16:48:26;4.30;99.90
23873;DHT22;42884;50.718;4.630;2023-01-23T16:50:53;4.40;99.90
23873;DHT22;42884;50.718;4.630;2023-01-23T16:53:23;4.40;99.90
23873;DHT22;42884;50.718;4.630;2023-01-23T16:55:49;4.40;99.90
23873;DHT22;42884;50.718;4.630;2023-01-23T16:58:18;4.60;99.90
23873;DHT22;42884;50.718;4.630;2023-01-23T17:00:44;4.60;99.90
23873;DHT22;42884;50.718;4.630;2023-01-23T17:03:12;4.50;99.90
23873;DHT22;42884;50.718;4.630;2023-01-23T17:05:44;4.50;99.90
23873;DHT22;42884;50.718;4.630;2023-01-23T17:08:14;4.50;99.90
23873;DHT22;42884;50.718;4.630;2023-01-23T17:10:40;4.30;99.90
23873;DHT22;42884;50.718;4.630;2023-01-23T17:13:07;4.30;99.90
23873;DHT22;42884;50.718;4.630;2023-01-23T17:15:34;4.30;99.90
23873;DHT22;42884;50.718;4.630;2023-01-23T17:17:59;4.30;99.90
23873;DHT22;42884;50.718;4.630;2023-01-23T17:20:26;4.20;99.90
23873;DHT22;42884;50.718;4.630;2023-01-23T17:22:54;4.30;99.90
23873;DHT22;42884;50.718;4.630;2023-01-23T17:25:24;4.40;99.90
23873;DHT22;42884;50.718;4.630;2023-01-23T17:27:50;4.30;99.90